Time;durP1;ratioP1;P1;durP2;ratioP2;P2;SDS_P1;SDS_P2;PMS_P1;PMS_P2;Temp;Humidity;BMP_temperature;BMP_pressure;BME280_temperature;BME280_humidity;BME280_pressure;Samples;Min_cycle;Max_cycle;Signal;HPM_P1;HPM_P2
2022/04/24 00:01:10;;;;;;;11.75;10.30;;;16.80;88.40;;;;;;5033653;28;20243;-39
2022/04/24 00:03:40;;;;;;;10.90;9.85;;;16.80;88.20;;;;;;5033025;28;20741;-38
2022/04/24 00:06:07;;;;;;;12.50;10.15;;;16.70;88.20;;;;;;5040879;28;20235;-38
2022/04/24 00:08:37;;;;;;;11.07;9.98;;;16.70;88.20;;;;;;5030941;28;20674;-38
2022/04/24 00:11:04;;;;;;;10.35;9.25;;;16.60;87.90;;;;;;5016347;28;20219;-38
2022/04/24 00:13:41;;;;;;;11.13;8.95;;;16.60;87.80;;;;;;5024587;28;20222;-40
2022/04/24 00:16:10;;;;;;;10.90;9.43;;;16.60;87.90;;;;;;5028025;28;20287;-40
2022/04/24 00:18:38;;;;;;;11.10;8.95;;;16.60;87.80;;;;;;5039604;28;20208;-41
2022/04/24 00:21:10;;;;;;;12.18;9.32;;;16.60;87.60;;;;;;5028664;28;20212;-40
2022/04/24 00:23:37;;;;;;;9.32;8.32;;;16.60;87.60;;;;;;5035777;28;20205;-41
2022/04/24 00:26:07;;;;;;;10.00;9.00;;;16.50;87.40;;;;;;5032469;28;20710;-42
2022/04/24 00:28:34;;;;;;;8.35;7.50;;;16.50;87.40;;;;;;5037302;28;20681;-41
2022/04/24 00:31:04;;;;;;;10.50;8.30;;;16.50;87.30;;;;;;5023976;28;20280;-42
2022/04/24 00:33:31;;;;;;;9.32;7.78;;;16.50;87.20;;;;;;5026658;28;20675;-41
2022/04/24 00:36:00;;;;;;;9.52;8.02;;;16.50;87.20;;;;;;5029719;28;20311;-41
2022/04/24 00:38:35;;;;;;;9.70;7.85;;;16.50;87.10;;;;;;5033895;28;20611;-41
2022/04/24 00:41:03;;;;;;;8.10;7.25;;;16.40;86.80;;;;;;5039854;28;20212;-41
2022/04/24 00:43:33;;;;;;;8.07;7.28;;;16.40;86.70;;;;;;5045921;28;20239;-40
2022/04/24 00:46:13;;;;;;;9.75;6.50;;;16.40;86.70;;;;;;5045450;28;20224;-42
2022/04/24 00:48:43;;;;;;;9.13;6.60;;;16.40;86.60;;;;;;5040380;28;20791;-41
2022/04/24 00:51:12;;;;;;;7.28;6.43;;;16.30;86.50;;;;;;5027028;28;20205;-40
2022/04/24 00:53:39;;;;;;;8.07;5.82;;;16.30;86.50;;;;;;5037100;28;20196;-41
2022/04/24 00:56:08;;;;;;;7.55;6.75;;;16.30;86.50;;;;;;5036856;28;20322;-41
2022/04/24 00:58:39;;;;;;;9.77;7.03;;;16.30;86.40;;;;;;5034343;28;20676;-40
2022/04/24 01:01:09;;;;;;;6.65;6.00;;;16.30;86.40;;;;;;5036641;28;20208;-41
2022/04/24 01:03:38;;;;;;;6.53;5.93;;;16.30;86.20;;;;;;5041257;28;20205;-41
2022/04/24 01:06:08;;;;;;;8.00;6.43;;;16.20;85.90;;;;;;5039900;28;20227;-42
2022/04/24 01:08:35;;;;;;;7.13;5.32;;;16.20;85.90;;;;;;5040167;28;20258;-40
2022/04/24 01:11:04;;;;;;;7.28;5.47;;;16.20;85.70;;;;;;5033634;28;20299;-39
2022/04/24 01:13:33;;;;;;;7.13;5.40;;;16.20;85.50;;;;;;5044979;28;20667;-39
2022/04/24 01:16:01;;;;;;;6.53;5.75;;;16.20;85.50;;;;;;5040039;28;20552;-40
2022/04/24 01:18:30;;;;;;;6.05;5.45;;;16.10;85.20;;;;;;5038149;28;20249;-39
2022/04/24 01:20:57;;;;;;;6.80;5.30;;;16.00;85.10;;;;;;5034040;28;20320;-39
2022/04/24 01:23:24;;;;;;;5.97;5.38;;;16.00;85.20;;;;;;5044075;28;20201;-39
2022/04/24 01:25:51;;;;;;;6.53;5.20;;;16.00;85.10;;;;;;5042483;28;20228;-39
2022/04/24 01:28:21;;;;;;;6.13;5.43;;;16.00;85.20;;;;;;5038395;28;20238;-39
2022/04/24 01:30:51;;;;;;;7.65;4.70;;;16.00;85.00;;;;;;5037737;28;20207;-38
2022/04/24 01:33:18;;;;;;;6.00;5.20;;;16.00;85.00;;;;;;5028672;28;20208;-39
2022/04/24 01:35:48;;;;;;;5.80;5.20;;;16.00;85.00;;;;;;5044940;28;20254;-40
2022/04/24 01:38:15;;;;;;;9.20;5.50;;;16.00;85.00;;;;;;5049030;28;20212;-39
2022/04/24 01:40:42;;;;;;;7.30;5.30;;;16.00;84.80;;;;;;5033557;28;20201;-39
2022/04/24 01:43:09;;;;;;;6.88;5.32;;;16.00;84.80;;;;;;5040461;28;20250;-40
2022/04/24 01:45:36;;;;;;;5.68;5.15;;;15.90;84.80;;;;;;5049474;28;20220;-39
2022/04/24 01:48:06;;;;;;;6.38;5.03;;;16.00;84.90;;;;;;5034571;28;20245;-40
2022/04/24 01:50:34;;;;;;;8.35;4.88;;;15.90;84.60;;;;;;5029206;28;20264;-40
2022/04/24 01:53:04;;;;;;;5.85;4.90;;;15.90;84.50;;;;;;5035055;28;20196;-39
2022/04/24 01:55:34;;;;;;;6.32;4.80;;;15.90;84.60;;;;;;5048846;28;20370;-40
2022/04/24 01:58:03;;;;;;;7.07;4.53;;;15.80;84.30;;;;;;5034822;28;20217;-39
2022/04/24 02:00:33;;;;;;;5.18;4.53;;;15.80;84.40;;;;;;5038656;28;20740;-40
2022/04/24 02:03:03;;;;;;;7.88;4.95;;;15.80;84.40;;;;;;5027720;28;20308;-39
2022/04/24 02:05:33;;;;;;;5.45;4.72;;;15.70;84.20;;;;;;5034405;28;20225;-40
2022/04/24 02:08:04;;;;;;;5.47;4.28;;;15.70;84.20;;;;;;5041554;28;20192;-39
2022/04/24 02:10:32;;;;;;;5.28;4.35;;;15.70;84.30;;;;;;5033069;28;20232;-39
2022/04/24 02:12:59;;;;;;;6.00;4.25;;;15.70;84.30;;;;;;5044607;28;20204;-39
2022/04/24 02:15:29;;;;;;;4.80;4.30;;;15.70;84.30;;;;;;5050005;28;20603;-39
2022/04/24 02:17:57;;;;;;;6.32;4.63;;;15.60;84.10;;;;;;5031747;28;20209;-39
2022/04/24 02:20:28;;;;;;;5.70;4.57;;;15.60;84.20;;;;;;5029543;28;20204;-39
2022/04/24 02:23:02;;;;;;;5.38;4.28;;;15.60;84.10;;;;;;5036248;28;20694;-39
2022/04/24 02:25:32;;;;;;;4.93;4.00;;;15.60;84.20;;;;;;5028558;28;20201;-39
2022/04/24 02:27:59;;;;;;;5.20;4.30;;;15.50;84.00;;;;;;5029041;28;20228;-39
2022/04/24 02:30:30;;;;;;;5.82;4.20;;;15.50;84.00;;;;;;5031607;28;20201;-39
2022/04/24 02:33:01;;;;;;;5.50;4.47;;;15.50;84.10;;;;;;5027303;28;20250;-39
2022/04/24 02:35:30;;;;;;;6.63;4.47;;;15.50;84.10;;;;;;5030154;28;20231;-39
2022/04/24 02:37:57;;;;;;;5.32;3.97;;;15.40;84.00;;;;;;5033386;28;20625;-39
2022/04/24 02:40:28;;;;;;;5.53;4.28;;;15.40;84.00;;;;;;5031071;28;20204;-39
2022/04/24 02:42:57;;;;;;;6.25;4.35;;;15.40;84.00;;;;;;5039180;28;20240;-39
2022/04/24 02:45:24;;;;;;;4.65;3.60;;;15.40;84.10;;;;;;5042834;28;20244;-39
2022/04/24 02:47:54;;;;;;;5.20;4.35;;;15.30;84.00;;;;;;5032567;28;20729;-39
2022/04/24 02:50:24;;;;;;;5.28;4.15;;;15.30;84.00;;;;;;5027870;28;20675;-39
2022/04/24 02:52:57;;;;;;;4.47;3.83;;;15.30;84.00;;;;;;5027725;28;20271;-39
2022/04/24 02:55:25;;;;;;;4.53;4.13;;;15.20;83.90;;;;;;5032195;28;20243;-39
2022/04/24 02:57:57;;;;;;;4.47;4.07;;;15.20;84.00;;;;;;5039935;28;20208;-39
2022/04/24 03:00:39;;;;;;;4.35;3.95;;;15.20;84.00;;;;;;5037356;28;20297;-39
2022/04/24 03:03:10;;;;;;;4.57;4.10;;;15.10;84.00;;;;;;5038209;28;20209;-39
2022/04/24 03:05:37;;;;;;;5.68;4.45;;;15.10;83.90;;;;;;5029102;28;20212;-39
2022/04/24 03:08:05;;;;;;;4.32;3.72;;;15.10;83.80;;;;;;5036525;28;20674;-41
2022/04/24 03:10:35;;;;;;;4.45;4.05;;;15.10;83.80;;;;;;5029231;28;20319;-41
2022/04/24 03:13:03;;;;;;;4.63;4.22;;;15.10;83.80;;;;;;5027028;28;20289;-39
2022/04/24 03:15:30;;;;;;;4.78;4.30;;;15.10;83.90;;;;;;5034992;28;20242;-40
2022/04/24 03:17:58;;;;;;;4.50;4.10;;;15.10;84.00;;;;;;5034387;28;20228;-41
2022/04/24 03:20:25;;;;;;;8.13;4.32;;;15.00;83.80;;;;;;5035539;28;20217;-41
2022/04/24 03:22:59;;;;;;;4.40;4.00;;;15.00;84.00;;;;;;5040206;28;20203;-40
2022/04/24 03:25:29;;;;;;;5.30;4.45;;;14.90;83.90;;;;;;5037783;28;20203;-39
2022/04/24 03:27:58;;;;;;;4.97;4.47;;;14.90;83.80;;;;;;5035547;28;20240;-40
2022/04/24 03:30:28;;;;;;;5.00;4.50;;;14.90;83.90;;;;;;5031171;28;20636;-40
2022/04/24 03:32:55;;;;;;;5.03;4.53;;;14.80;83.80;;;;;;5042573;28;20204;-41
2022/04/24 03:35:23;;;;;;;4.53;4.10;;;14.80;83.80;;;;;;5029433;28;20316;-44
2022/04/24 03:37:50;;;;;;;5.10;4.30;;;14.80;84.50;;;;;;5043134;28;20242;-40
2022/04/24 03:40:20;;;;;;;4.72;4.30;;;14.80;83.80;;;;;;5046828;28;20270;-41
2022/04/24 03:42:49;;;;;;;4.82;4.43;;;14.80;84.00;;;;;;5033630;28;20754;-40
2022/04/24 03:45:17;;;;;;;4.65;4.25;;;14.80;84.00;;;;;;5042349;28;20220;-41
2022/04/24 03:47:49;;;;;;;5.75;4.32;;;14.70;83.90;;;;;;5027993;28;20274;-40
2022/04/24 03:50:16;;;;;;;8.15;4.55;;;14.70;84.00;;;;;;5032309;28;20197;-40
2022/04/24 03:52:50;;;;;;;4.90;4.40;;;14.70;84.10;;;;;;5027888;28;20217;-40
2022/04/24 03:55:22;;;;;;;5.35;4.35;;;14.70;84.10;;;;;;5038442;28;20316;-39
2022/04/24 03:57:51;;;;;;;4.35;4.03;;;14.70;84.00;;;;;;5031704;28;20359;-40
2022/04/24 04:00:18;;;;;;;4.65;4.20;;;14.60;84.00;;;;;;5042262;28;20638;-41
2022/04/24 04:02:49;;;;;;;4.63;4.13;;;14.60;84.00;;;;;;5032546;28;20703;-41
2022/04/24 04:05:21;;;;;;;4.93;4.43;;;14.60;84.00;;;;;;5033565;28;20704;-38
2022/04/24 04:07:49;;;;;;;4.75;4.32;;;14.60;84.00;;;;;;5037059;28;20835;-41
2022/04/24 04:10:22;;;;;;;4.53;4.13;;;14.50;83.90;;;;;;5042258;28;20193;-41
2022/04/24 04:12:51;;;;;;;4.97;4.47;;;14.50;83.90;;;;;;5039297;28;20205;-42
2022/04/24 04:15:21;;;;;;;4.25;3.85;;;14.50;83.90;;;;;;5028944;28;20291;-41
2022/04/24 04:17:48;;;;;;;4.97;4.45;;;14.50;84.00;;;;;;5036210;28;20204;-41
2022/04/24 04:20:18;;;;;;;5.40;4.90;;;14.40;83.90;;;;;;5026988;28;20802;-41
2022/04/24 04:22:55;;;;;;;4.68;4.28;;;14.40;84.10;;;;;;5035937;28;20217;-39
2022/04/24 04:25:25;;;;;;;5.00;4.15;;;14.30;84.00;;;;;;5044422;28;20726;-40
2022/04/24 04:27:55;;;;;;;7.28;4.88;;;14.30;83.90;;;;;;5037350;28;20251;-41
2022/04/24 04:30:22;;;;;;;5.05;4.32;;;14.30;84.00;;;;;;5035217;28;20227;-40
2022/04/24 04:32:50;;;;;;;4.80;4.40;;;14.30;84.00;;;;;;5043997;28;20196;-41
2022/04/24 04:35:23;;;;;;;5.85;4.40;;;14.20;83.90;;;;;;5041472;28;20480;-41
2022/04/24 04:37:51;;;;;;;5.87;4.60;;;14.20;84.10;;;;;;5031801;28;20539;-41
2022/04/24 04:40:20;;;;;;;5.10;4.60;;;14.10;84.00;;;;;;5026358;28;20295;-40
2022/04/24 04:42:49;;;;;;;5.47;4.40;;;14.10;84.00;;;;;;5032608;28;20196;-40
2022/04/24 04:45:18;;;;;;;6.18;4.30;;;14.10;84.00;;;;;;5037892;28;20203;-40
2022/04/24 04:47:47;;;;;;;5.17;4.67;;;14.10;84.00;;;;;;5043201;28;20224;-39
2022/04/24 04:50:17;;;;;;;5.03;4.63;;;14.10;84.00;;;;;;5026205;28;20628;-40
2022/04/24 04:52:44;;;;;;;5.43;4.93;;;14.10;84.20;;;;;;5039965;28;20231;-41
2022/04/24 04:55:14;;;;;;;5.30;4.80;;;14.10;84.00;;;;;;5037532;28;20244;-41
2022/04/24 04:57:44;;;;;;;4.78;4.35;;;14.10;84.10;;;;;;5027953;28;20208;-40
2022/04/24 05:00:13;;;;;;;4.88;4.47;;;14.10;84.00;;;;;;5040039;28;20206;-41
2022/04/24 05:02:43;;;;;;;4.85;4.45;;;14.10;84.10;;;;;;5034532;28;20731;-41
2022/04/24 05:05:13;;;;;;;5.23;4.73;;;14.10;84.20;;;;;;5050201;28;20212;-41
2022/04/24 05:07:42;;;;;;;4.80;4.40;;;14.10;84.10;;;;;;5049038;28;20706;-40
2022/04/24 05:10:11;;;;;;;5.10;4.60;;;14.10;84.20;;;;;;5034879;28;20668;-41
2022/04/24 05:12:39;;;;;;;5.63;5.13;;;14.10;84.30;;;;;;5034021;28;20201;-41
2022/04/24 05:15:11;;;;;;;5.10;4.60;;;14.10;84.80;;;;;;5038039;28;20307;-39
2022/04/24 05:17:39;;;;;;;5.00;4.60;;;14.10;84.30;;;;;;5038081;28;20236;-39
2022/04/24 05:20:11;;;;;;;5.10;4.70;;;14.10;84.30;;;;;;5034393;28;20295;-40
2022/04/24 05:22:40;;;;;;;4.88;4.47;;;14.10;84.20;;;;;;5041286;28;20228;-41
2022/04/24 05:25:09;;;;;;;6.10;5.50;;;14.10;84.30;;;;;;5049139;28;20632;-39
2022/04/24 05:27:37;;;;;;;5.80;5.20;;;14.10;84.70;;;;;;5040308;28;20251;-41
2022/04/24 05:30:08;;;;;;;5.57;5.07;;;14.10;84.40;;;;;;5038667;28;20205;-41
2022/04/24 05:32:48;;;;;;;5.82;5.25;;;14.00;84.60;;;;;;5039955;28;20259;-40
2022/04/24 05:35:20;;;;;;;5.55;5.05;;;14.00;84.50;;;;;;5031613;28;20197;-41
2022/04/24 05:37:51;;;;;;;5.20;4.68;;;14.00;84.50;;;;;;5038058;28;20303;-41
2022/04/24 05:40:19;;;;;;;5.88;5.38;;;14.00;84.40;;;;;;5029229;28;20319;-39
2022/04/24 05:42:53;;;;;;;6.40;5.57;;;14.00;84.50;;;;;;5037697;28;20279;-39
2022/04/24 05:45:27;;;;;;;5.53;5.03;;;14.00;84.30;;;;;;5039644;28;20619;-39
2022/04/24 05:47:54;;;;;;;5.63;5.13;;;14.00;84.90;;;;;;5033884;28;20278;-39
2022/04/24 05:50:25;;;;;;;5.82;5.30;;;14.00;84.40;;;;;;5029084;28;20347;-40
2022/04/24 05:52:58;;;;;;;6.03;5.43;;;14.00;84.40;;;;;;5039816;28;20257;-40
2022/04/24 05:55:26;;;;;;;6.00;5.50;;;14.00;84.40;;;;;;5048154;28;20646;-45
2022/04/24 05:57:55;;;;;;;5.97;5.43;;;14.00;85.20;;;;;;5047857;28;20204;-39
2022/04/24 06:00:27;;;;;;;6.60;6.00;;;14.00;84.50;;;;;;5033270;28;20221;-39
2022/04/24 06:02:59;;;;;;;6.10;5.60;;;14.00;84.70;;;;;;5030927;28;20634;-39
2022/04/24 06:05:29;;;;;;;6.10;5.50;;;14.00;84.70;;;;;;5029775;28;20214;-39
2022/04/24 06:07:59;;;;;;;5.90;5.30;;;14.00;84.50;;;;;;5036435;28;20220;-39
2022/04/24 06:10:28;;;;;;;5.93;5.43;;;14.00;84.50;;;;;;5030077;28;20236;-39
2022/04/24 06:13:01;;;;;;;7.17;6.50;;;14.00;84.70;;;;;;5029432;28;20250;-39
2022/04/24 06:15:28;;;;;;;6.32;5.70;;;14.10;85.00;;;;;;5029846;28;20209;-39
2022/04/24 06:17:59;;;;;;;6.90;6.18;;;14.00;84.70;;;;;;5034804;28;20302;-39
2022/04/24 06:20:30;;;;;;;6.85;6.15;;;14.00;84.80;;;;;;5040725;28;20211;-39
2022/04/24 06:23:00;;;;;;;7.47;6.35;;;14.00;84.80;;;;;;5045074;28;20207;-40
2022/04/24 06:25:39;;;;;;;6.85;6.10;;;14.00;85.30;;;;;;5037267;28;20666;-41
2022/04/24 06:28:10;;;;;;;7.07;6.38;;;14.00;85.00;;;;;;5034879;28;20328;-40
2022/04/24 06:30:41;;;;;;;7.43;6.60;;;14.00;85.10;;;;;;5031102;28;20235;-40
2022/04/24 06:33:14;;;;;;;7.85;6.28;;;14.00;85.20;;;;;;5026287;28;22052;-40
2022/04/24 06:35:45;;;;;;;7.22;6.53;;;14.00;85.00;;;;;;5033479;28;20211;-42
2022/04/24 06:38:24;;;;;;;7.45;6.75;;;14.00;85.00;;;;;;5037237;28;20204;-41
2022/04/24 06:40:53;;;;;;;8.43;7.23;;;14.00;85.30;;;;;;5041495;28;20231;-41
2022/04/24 06:43:20;;;;;;;8.27;7.47;;;14.00;85.70;;;;;;5031695;28;20698;-40
2022/04/24 06:45:47;;;;;;;9.40;7.68;;;14.00;85.40;;;;;;5050242;28;20214;-40
2022/04/24 06:48:20;;;;;;;6.55;5.95;;;14.00;85.40;;;;;;5035645;28;20209;-40
2022/04/24 06:50:49;;;;;;;7.72;6.93;;;14.00;85.10;;;;;;5034898;28;20208;-41
2022/04/24 06:53:19;;;;;;;8.70;7.80;;;14.00;85.50;;;;;;5046276;28;20236;-41
2022/04/24 06:55:48;;;;;;;7.90;6.68;;;14.00;85.90;;;;;;5027751;28;20228;-42
2022/04/24 06:58:20;;;;;;;8.25;7.45;;;14.00;85.60;;;;;;5026352;28;20209;-40
2022/04/24 07:00:48;;;;;;;9.13;8.10;;;14.00;85.90;;;;;;5028799;28;20216;-41
2022/04/24 07:03:34;;;;;;;9.00;8.10;;;14.00;86.30;;;;;;5023314;28;20560;-41
2022/04/24 07:06:02;;;;;;;8.10;7.30;;;13.90;86.10;;;;;;5034690;28;20196;-41
2022/04/24 07:08:35;;;;;;;6.95;6.30;;;14.00;85.80;;;;;;5034600;28;20224;-41
2022/04/24 07:11:05;;;;;;;8.32;7.53;;;14.00;85.60;;;;;;5027115;28;20806;-42
2022/04/24 07:13:36;;;;;;;8.13;7.43;;;14.00;85.90;;;;;;5033883;28;20745;-39
2022/04/24 07:16:06;;;;;;;9.07;8.00;;;14.00;85.90;;;;;;5028072;28;20220;-41
2022/04/24 07:18:33;;;;;;;8.50;7.47;;;14.00;86.20;;;;;;5028140;28;20715;-42
2022/04/24 07:21:02;;;;;;;8.43;7.63;;;14.00;86.10;;;;;;5033277;28;20223;-40
2022/04/24 07:23:35;;;;;;;7.57;6.82;;;14.10;85.90;;;;;;5030605;28;20292;-39
2022/04/24 07:26:02;;;;;;;8.70;7.90;;;14.10;86.00;;;;;;5029880;28;20238;-41
2022/04/24 07:28:32;;;;;;;7.45;6.75;;;14.20;86.20;;;;;;5033852;28;20650;-40
2022/04/24 07:31:06;;;;;;;9.27;6.88;;;14.20;86.20;;;;;;5032417;28;20208;-38
2022/04/24 07:33:36;;;;;;;7.78;6.97;;;14.30;86.00;;;;;;5039048;28;20203;-38
2022/04/24 07:36:04;;;;;;;8.52;7.72;;;14.30;86.10;;;;;;5037643;28;20216;-38
2022/04/24 07:38:32;;;;;;;9.20;7.43;;;14.40;86.50;;;;;;5038349;28;20231;-39
2022/04/24 07:41:03;;;;;;;8.68;7.78;;;14.40;86.60;;;;;;5044921;28;20207;-37
2022/04/24 07:43:30;;;;;;;8.68;7.70;;;14.40;86.50;;;;;;5028195;28;20556;-42
2022/04/24 07:45:57;;;;;;;8.13;7.40;;;14.50;86.70;;;;;;5031704;28;20267;-39
2022/04/24 07:48:25;;;;;;;8.73;7.93;;;14.50;86.40;;;;;;5032880;28;20220;-39
2022/04/24 07:50:52;;;;;;;8.75;7.95;;;14.50;86.60;;;;;;5030375;28;20213;-40
2022/04/24 07:53:23;;;;;;;8.20;7.40;;;14.50;86.60;;;;;;5034043;28;20212;-39
2022/04/24 07:55:50;;;;;;;8.85;7.35;;;14.50;86.90;;;;;;5030837;28;20229;-41
2022/04/24 07:58:20;;;;;;;8.30;7.50;;;14.60;86.90;;;;;;5028396;28;20205;-40
2022/04/24 08:00:47;;;;;;;10.13;7.90;;;14.60;87.10;;;;;;5027186;28;20203;-39
2022/04/24 08:03:19;;;;;;;10.15;7.60;;;14.70;87.10;;;;;;5038947;28;20228;-41
2022/04/24 08:05:50;;;;;;;8.45;7.57;;;14.70;87.10;;;;;;5046441;28;20306;-40
2022/04/24 08:08:26;;;;;;;7.75;6.95;;;14.70;87.10;;;;;;5042016;28;20279;-40
2022/04/24 08:11:00;;;;;;;8.55;7.75;;;14.80;87.00;;;;;;5028234;28;20572;-39
2022/04/24 08:13:30;;;;;;;8.93;7.10;;;14.80;87.20;;;;;;5026008;28;20197;-39
2022/04/24 08:16:01;;;;;;;7.63;6.93;;;14.80;87.10;;;;;;5028180;28;20204;-40
2022/04/24 08:18:35;;;;;;;9.05;7.63;;;14.90;87.10;;;;;;5026523;28;20251;-40
2022/04/24 08:21:02;;;;;;;9.15;7.35;;;14.90;87.00;;;;;;5042693;28;20701;-41
2022/04/24 08:23:29;;;;;;;8.30;7.50;;;14.90;87.00;;;;;;5047152;28;20632;-40
2022/04/24 08:25:59;;;;;;;8.70;7.90;;;15.00;87.20;;;;;;5031485;28;20248;-39
2022/04/24 08:28:28;;;;;;;8.55;7.55;;;15.00;87.20;;;;;;5047218;28;20228;-40
2022/04/24 08:30:57;;;;;;;8.52;7.72;;;15.00;87.30;;;;;;5045941;28;20208;-40
2022/04/24 08:33:26;;;;;;;10.27;8.02;;;15.10;87.60;;;;;;5037595;28;20215;-41
2022/04/24 08:35:58;;;;;;;8.63;7.72;;;15.10;87.90;;;;;;5030599;28;20212;-41
2022/04/24 08:38:25;;;;;;;11.23;8.35;;;15.10;87.80;;;;;;5036915;28;20250;-41
2022/04/24 08:40:59;;;;;;;8.82;7.80;;;15.10;87.90;;;;;;5040152;28;20296;-41
2022/04/24 08:43:28;;;;;;;8.75;7.95;;;15.10;87.70;;;;;;5039129;28;20232;-41
2022/04/24 08:45:59;;;;;;;8.95;8.05;;;15.20;87.90;;;;;;5044717;28;20226;-41
2022/04/24 08:48:28;;;;;;;9.00;8.00;;;15.20;87.70;;;;;;5050391;28;20649;-40
2022/04/24 08:50:58;;;;;;;7.95;7.25;;;15.20;87.70;;;;;;5033829;28;20925;-41
2022/04/24 08:53:29;;;;;;;9.40;8.20;;;15.30;87.70;;;;;;5029748;28;20204;-41
2022/04/24 08:55:59;;;;;;;8.55;7.68;;;15.30;87.70;;;;;;5034894;28;20319;-40
2022/04/24 08:58:30;;;;;;;8.82;8.00;;;15.40;87.70;;;;;;5031491;28;20229;-39
2022/04/24 09:00:58;;;;;;;7.65;6.85;;;15.40;87.80;;;;;;5036709;28;20201;-39
2022/04/24 09:03:25;;;;;;;8.00;7.20;;;15.40;87.80;;;;;;5032176;28;20209;-39
2022/04/24 09:05:54;;;;;;;9.27;8.00;;;15.50;87.90;;;;;;5030998;28;20876;-39
2022/04/24 09:08:24;;;;;;;8.00;7.20;;;15.60;88.00;;;;;;5030332;28;20225;-39
2022/04/24 09:11:13;;;;;;;9.23;7.85;;;15.60;88.00;;;;;;5034284;28;20299;-39
2022/04/24 09:14:27;;;;;;;8.88;7.97;;;15.70;88.80;;;;;;5030089;28;20200;-39
2022/04/24 09:16:46;;;;;;;9.18;7.70;;;15.80;88.10;;;;;;5028486;28;20250;-40
2022/04/24 09:19:23;;;;;;;8.07;7.28;;;15.70;88.10;;;;;;5049540;28;20666;-39
2022/04/24 09:21:52;;;;;;;9.07;8.23;;;15.80;88.10;;;;;;5038372;28;20192;-40
2022/04/24 09:24:20;;;;;;;8.10;7.30;;;15.80;88.00;;;;;;5030830;28;20264;-39
2022/04/24 09:26:51;;;;;;;8.75;7.85;;;15.90;88.10;;;;;;5040518;28;20672;-39
2022/04/24 09:29:18;;;;;;;7.93;7.22;;;15.90;88.10;;;;;;5030190;28;20232;-39
2022/04/24 09:31:47;;;;;;;7.68;6.88;;;16.00;88.40;;;;;;5033101;28;20296;-39
2022/04/24 09:34:16;;;;;;;7.13;6.43;;;16.10;88.50;;;;;;5032766;28;20248;-39
2022/04/24 09:36:59;;;;;;;7.95;7.10;;;16.20;88.60;;;;;;5038717;28;20318;-39
2022/04/24 09:39:32;;;;;;;7.90;7.15;;;16.20;88.60;;;;;;5034797;28;20219;-40
2022/04/24 09:42:09;;;;;;;7.25;6.55;;;16.30;88.60;;;;;;5045548;28;21090;-39
2022/04/24 09:44:50;;;;;;;7.65;6.93;;;16.40;88.50;;;;;;5039673;28;20240;-39
2022/04/24 09:47:37;;;;;;;8.57;7.55;;;16.40;88.50;;;;;;5048199;28;20585;-40
2022/04/24 09:50:10;;;;;;;7.30;6.60;;;16.50;88.40;;;;;;5029964;28;20216;-39
2022/04/24 09:52:47;;;;;;;7.10;6.40;;;16.50;88.40;;;;;;5029750;28;20224;-39
2022/04/24 09:55:15;;;;;;;7.72;6.55;;;16.60;88.70;;;;;;5029132;28;20267;-39
2022/04/24 09:57:43;;;;;;;7.35;6.38;;;16.70;88.80;;;;;;5029424;28;20544;-39
2022/04/24 10:00:16;;;;;;;7.43;6.63;;;16.70;88.80;;;;;;5028787;28;20248;-39
2022/04/24 10:02:46;;;;;;;7.53;6.07;;;16.80;88.70;;;;;;5032829;28;20207;-40
2022/04/24 10:05:15;;;;;;;7.30;6.60;;;16.80;88.80;;;;;;5030056;28;20762;-39
2022/04/24 10:07:45;;;;;;;7.25;6.55;;;16.90;88.80;;;;;;5029666;28;20225;-39
2022/04/24 10:10:15;;;;;;;7.47;6.78;;;16.90;88.30;;;;;;5039888;28;20231;-40
2022/04/24 10:12:46;;;;;;;7.65;6.60;;;16.90;87.40;;;;;;5045528;28;20805;-40
2022/04/24 10:15:16;;;;;;;7.95;7.15;;;17.00;88.20;;;;;;5040616;28;20209;-39
2022/04/24 10:18:21;;;;;;;8.95;6.88;;;17.00;87.20;;;;;;5042819;28;20266;-40
2022/04/24 10:21:13;;;;;;;11.05;6.47;;;17.00;87.00;;;;;;5042867;28;20213;-39
2022/04/24 10:23:43;;;;;;;6.65;6.05;;;17.00;87.50;;;;;;5046211;28;20220;-39
2022/04/24 10:26:21;;;;;;;7.57;6.32;;;17.00;87.30;;;;;;5037445;28;20244;-39
2022/04/24 10:29:00;;;;;;;7.50;6.25;;;17.10;87.70;;;;;;5029067;28;20335;-39
2022/04/24 10:31:41;;;;;;;6.63;5.40;;;17.10;87.10;;;;;;5029874;28;20217;-39
2022/04/24 10:34:16;;;;;;;8.65;6.10;;;17.30;87.10;;;;;;5028912;28;20259;-39
2022/04/24 10:37:01;;;;;;;6.60;6.00;;;17.30;87.20;;;;;;5030481;28;20205;-39
2022/04/24 10:39:33;;;;;;;8.73;5.88;;;17.40;86.60;;;;;;5028732;28;20238;-40
2022/04/24 10:42:11;;;;;;;5.93;5.43;;;17.40;87.50;;;;;;5026566;28;20209;-39
2022/04/24 10:44:55;;;;;;;8.05;5.07;;;17.50;87.80;;;;;;5036171;28;20599;-40
2022/04/24 10:47:25;;;;;;;6.82;6.22;;;17.60;88.20;;;;;;5028118;28;20258;-40
2022/04/24 10:50:05;;;;;;;8.32;5.90;;;17.70;87.80;;;;;;5029822;28;20205;-39
2022/04/24 10:52:43;;;;;;;6.85;6.10;;;17.70;87.00;;;;;;5040596;28;20200;-39
2022/04/24 10:55:17;;;;;;;5.65;5.00;;;17.70;87.50;;;;;;5036284;28;20353;-40
2022/04/24 10:57:50;;;;;;;7.00;6.30;;;17.70;87.90;;;;;;5037834;28;20634;-40
2022/04/24 11:00:22;;;;;;;6.20;5.60;;;17.80;87.20;;;;;;5013718;28;20611;-39
2022/04/24 11:02:54;;;;;;;6.20;5.60;;;17.80;87.20;;;;;;5028545;28;20209;-39
2022/04/24 11:05:26;;;;;;;6.57;5.97;;;17.90;87.00;;;;;;5032424;28;20205;-39
2022/04/24 11:08:04;;;;;;;6.70;6.00;;;17.90;86.80;;;;;;5038005;28;20224;-38
2022/04/24 11:10:42;;;;;;;4.97;4.57;;;18.00;86.70;;;;;;5033894;28;20205;-38
2022/04/24 11:13:17;;;;;;;6.47;5.20;;;18.10;87.40;;;;;;5029738;28;20228;-39
2022/04/24 11:15:49;;;;;;;8.95;5.28;;;18.20;87.80;;;;;;5035907;28;20231;-39
2022/04/24 11:18:28;;;;;;;6.97;5.40;;;18.30;88.30;;;;;;5035626;28;20691;-39
2022/04/24 11:20:58;;;;;;;6.38;5.70;;;18.40;88.10;;;;;;5028495;28;20205;-39
2022/04/24 11:23:30;;;;;;;6.28;5.07;;;18.40;87.50;;;;;;5027786;28;20690;-39
2022/04/24 11:25:59;;;;;;;7.93;5.63;;;18.50;87.40;;;;;;5029689;28;20212;-39
2022/04/24 11:28:51;;;;;;;5.80;4.60;;;18.60;87.10;;;;;;5032346;28;20224;-39
2022/04/24 11:31:21;;;;;;;6.53;4.45;;;18.60;87.20;;;;;;5027821;28;20205;-40
2022/04/24 11:33:55;;;;;;;7.70;4.65;;;18.70;86.40;;;;;;5029419;28;20249;-40
2022/04/24 11:36:30;;;;;;;6.00;5.38;;;18.70;85.90;;;;;;5030492;28;20288;-40
2022/04/24 11:39:03;;;;;;;5.40;4.95;;;18.70;85.30;;;;;;5046814;28;20200;-40
2022/04/24 11:41:31;;;;;;;4.63;4.20;;;18.80;85.50;;;;;;5028074;28;20231;-40
2022/04/24 11:50:13;;;;;;;4.93;4.30;;;18.80;86.50;;;;;;5037655;28;20311;-40
2022/04/24 11:50:16;;;;;;;5.80;4.55;;;19.10;85.20;;;;;;5043647;28;20678;-39
2022/04/24 11:53:04;;;;;;;5.95;4.55;;;19.10;85.60;;;;;;5034831;28;20197;-39
2022/04/24 11:58:25;;;;;;;6.68;5.07;;;19.40;86.20;;;;;;5034930;28;20235;-40
2022/04/24 12:01:02;;;;;;;6.85;5.38;;;19.40;84.50;;;;;;5038709;28;20217;-40
2022/04/24 12:03:32;;;;;;;5.28;4.78;;;19.40;84.00;;;;;;5040239;28;20254;-40
2022/04/24 12:06:00;;;;;;;5.97;5.38;;;19.40;85.70;;;;;;5046198;28;20208;-40
2022/04/24 12:08:46;;;;;;;5.22;4.20;;;19.50;85.30;;;;;;5044524;28;20224;-39
2022/04/24 12:11:30;;;;;;;6.10;4.90;;;19.50;86.20;;;;;;5027860;28;20251;-40
2022/04/24 12:14:08;;;;;;;6.05;4.63;;;19.60;84.80;;;;;;5026825;28;20213;-40
2022/04/24 12:16:36;;;;;;;5.22;4.72;;;19.60;84.90;;;;;;5026219;28;20224;-40
2022/04/24 12:19:10;;;;;;;5.15;4.75;;;19.60;83.90;;;;;;5030397;28;20327;-40
2022/04/24 12:21:54;;;;;;;4.85;4.45;;;19.70;84.50;;;;;;5047129;28;20200;-41
2022/04/24 12:24:41;;;;;;;5.72;5.22;;;19.70;84.60;;;;;;5033960;28;20212;-41
2022/04/24 12:27:14;;;;;;;6.05;4.53;;;19.70;82.70;;;;;;5033864;28;20311;-41
2022/04/24 12:29:50;;;;;;;4.80;4.30;;;19.80;84.40;;;;;;5027151;28;20220;-39
2022/04/24 12:32:18;;;;;;;4.82;4.25;;;19.80;84.10;;;;;;5024664;28;20201;-39
2022/04/24 12:34:47;;;;;;;4.78;4.38;;;19.90;85.40;;;;;;5027082;28;20232;-39
2022/04/24 12:37:26;;;;;;;4.30;3.97;;;20.00;85.50;;;;;;5044266;28;20208;-39
2022/04/24 12:39:53;;;;;;;5.20;4.70;;;20.00;85.70;;;;;;5034702;28;20224;-39
2022/04/24 12:42:24;;;;;;;7.30;5.13;;;20.00;82.90;;;;;;5030471;28;20688;-39
2022/04/24 12:44:54;;;;;;;4.75;4.25;;;20.00;82.00;;;;;;5045026;28;20238;-39
2022/04/24 12:47:22;;;;;;;4.65;4.25;;;20.00;82.40;;;;;;5058931;28;20220;-39
2022/04/24 12:49:54;;;;;;;4.95;4.47;;;20.00;84.20;;;;;;5043084;28;20759;-39
2022/04/24 12:52:27;;;;;;;7.47;5.15;;;20.00;84.10;;;;;;5031554;28;20247;-39
2022/04/24 12:54:57;;;;;;;9.80;4.93;;;20.10;82.10;;;;;;5031573;28;20287;-40
2022/04/24 12:57:30;;;;;;;5.38;4.95;;;20.10;82.30;;;;;;5031760;28;20295;-40
2022/04/24 12:59:57;;;;;;;6.30;5.20;;;20.10;83.20;;;;;;5039625;28;20634;-40
2022/04/24 13:02:26;;;;;;;5.13;4.65;;;20.10;83.80;;;;;;5028054;28;20264;-40
2022/04/24 13:04:58;;;;;;;7.72;5.38;;;20.00;83.90;;;;;;5027745;28;20228;-38
2022/04/24 13:07:30;;;;;;;9.38;5.60;;;20.10;83.10;;;;;;5029582;28;20742;-41
2022/04/24 13:10:06;;;;;;;5.70;5.03;;;20.10;83.30;;;;;;5039050;28;20224;-40
2022/04/24 13:12:34;;;;;;;6.70;5.45;;;20.10;83.30;;;;;;5030764;28;20245;-40